sensor_id;sensor_type;location;lat;lon;timestamp;P1;durP1;ratioP1;P2;durP2;ratioP2
75139;SDS011;63714;55.812;37.658;2023-05-07T00:02:07;4.00;;;3.00;;
75139;SDS011;63714;55.812;37.658;2023-05-07T00:04:33;4.47;;;2.53;;
75139;SDS011;63714;55.812;37.658;2023-05-07T00:07:03;7.25;;;2.45;;
75139;SDS011;63714;55.812;37.658;2023-05-07T00:09:29;4.72;;;2.92;;
75139;SDS011;63714;55.812;37.658;2023-05-07T00:11:54;10.30;;;3.53;;
75139;SDS011;63714;55.812;37.658;2023-05-07T00:14:20;4.95;;;3.22;;
75139;SDS011;63714;55.812;37.658;2023-05-07T00:16:46;5.20;;;2.75;;
75139;SDS011;63714;55.812;37.658;2023-05-07T00:19:12;5.55;;;2.53;;
75139;SDS011;63714;55.812;37.658;2023-05-07T00:21:37;7.70;;;3.03;;
75139;SDS011;63714;55.812;37.658;2023-05-07T00:24:03;6.47;;;3.10;;
75139;SDS011;63714;55.812;37.658;2023-05-07T00:26:29;5.43;;;2.85;;
75139;SDS011;63714;55.812;37.658;2023-05-07T00:28:54;6.15;;;3.13;;
75139;SDS011;63714;55.812;37.658;2023-05-07T00:31:20;5.57;;;3.03;;
75139;SDS011;63714;55.812;37.658;2023-05-07T00:33:46;8.95;;;3.40;;
75139;SDS011;63714;55.812;37.658;2023-05-07T00:36:12;5.13;;;2.92;;
75139;SDS011;63714;55.812;37.658;2023-05-07T00:38:37;6.20;;;3.13;;
75139;SDS011;63714;55.812;37.658;2023-05-07T00:41:03;6.78;;;3.30;;
75139;SDS011;63714;55.812;37.658;2023-05-07T00:43:29;5.50;;;2.65;;
75139;SDS011;63714;55.812;37.658;2023-05-07T00:45:55;6.00;;;2.83;;
75139;SDS011;63714;55.812;37.658;2023-05-07T00:48:20;4.40;;;2.85;;
75139;SDS011;63714;55.812;37.658;2023-05-07T00:50:46;5.22;;;2.47;;
75139;SDS011;63714;55.812;37.658;2023-05-07T00:53:13;3.22;;;2.00;;
75139;SDS011;63714;55.812;37.658;2023-05-07T00:55:39;4.18;;;2.67;;
75139;SDS011;63714;55.812;37.658;2023-05-07T00:58:05;4.45;;;2.45;;
75139;SDS011;63714;55.812;37.658;2023-05-07T01:00:32;5.45;;;2.08;;
75139;SDS011;63714;55.812;37.658;2023-05-07T01:02:57;4.10;;;2.22;;
75139;SDS011;63714;55.812;37.658;2023-05-07T01:05:23;3.55;;;2.55;;
75139;SDS011;63714;55.812;37.658;2023-05-07T01:07:51;4.25;;;2.42;;
75139;SDS011;63714;55.812;37.658;2023-05-07T01:10:19;4.13;;;2.58;;
75139;SDS011;63714;55.812;37.658;2023-05-07T01:12:45;5.28;;;2.67;;
75139;SDS011;63714;55.812;37.658;2023-05-07T01:15:12;4.82;;;2.50;;
75139;SDS011;63714;55.812;37.658;2023-05-07T01:17:39;5.85;;;2.50;;
75139;SDS011;63714;55.812;37.658;2023-05-07T01:20:06;6.50;;;2.40;;
75139;SDS011;63714;55.812;37.658;2023-05-07T01:22:38;4.65;;;2.50;;
75139;SDS011;63714;55.812;37.658;2023-05-07T01:25:04;7.10;;;2.63;;
75139;SDS011;63714;55.812;37.658;2023-05-07T01:27:32;6.88;;;2.70;;
75139;SDS011;63714;55.812;37.658;2023-05-07T01:30:05;5.00;;;2.78;;
75139;SDS011;63714;55.812;37.658;2023-05-07T01:32:56;4.95;;;2.45;;
75139;SDS011;63714;55.812;37.658;2023-05-07T01:35:27;4.18;;;2.28;;
75139;SDS011;63714;55.812;37.658;2023-05-07T01:37:55;4.50;;;2.55;;
75139;SDS011;63714;55.812;37.658;2023-05-07T01:40:22;5.57;;;2.53;;
75139;SDS011;63714;55.812;37.658;2023-05-07T01:42:49;3.88;;;2.30;;
75139;SDS011;63714;55.812;37.658;2023-05-07T01:45:15;4.70;;;2.00;;
75139;SDS011;63714;55.812;37.658;2023-05-07T01:47:41;5.70;;;2.30;;
75139;SDS011;63714;55.812;37.658;2023-05-07T01:50:08;3.58;;;2.47;;
75139;SDS011;63714;55.812;37.658;2023-05-07T01:52:36;4.28;;;2.45;;
75139;SDS011;63714;55.812;37.658;2023-05-07T01:55:03;2.97;;;1.90;;
75139;SDS011;63714;55.812;37.658;2023-05-07T01:57:30;4.35;;;1.98;;
75139;SDS011;63714;55.812;37.658;2023-05-07T01:59:55;7.13;;;2.50;;
75139;SDS011;63714;55.812;37.658;2023-05-07T02:02:21;4.95;;;2.15;;
75139;SDS011;63714;55.812;37.658;2023-05-07T02:04:47;4.25;;;2.10;;
75139;SDS011;63714;55.812;37.658;2023-05-07T02:07:12;4.40;;;2.00;;
75139;SDS011;63714;55.812;37.658;2023-05-07T02:09:38;4.05;;;1.85;;
75139;SDS011;63714;55.812;37.658;2023-05-07T02:12:04;5.57;;;1.75;;
75139;SDS011;63714;55.812;37.658;2023-05-07T02:14:30;5.68;;;1.98;;
75139;SDS011;63714;55.812;37.658;2023-05-07T02:16:55;5.05;;;2.35;;
75139;SDS011;63714;55.812;37.658;2023-05-07T02:19:21;3.83;;;2.15;;
75139;SDS011;63714;55.812;37.658;2023-05-07T02:21:47;4.93;;;2.10;;
75139;SDS011;63714;55.812;37.658;2023-05-07T02:24:13;4.05;;;2.30;;
75139;SDS011;63714;55.812;37.658;2023-05-07T02:26:42;5.65;;;2.30;;
75139;SDS011;63714;55.812;37.658;2023-05-07T02:29:07;3.67;;;2.13;;
75139;SDS011;63714;55.812;37.658;2023-05-07T02:31:33;3.65;;;2.30;;
75139;SDS011;63714;55.812;37.658;2023-05-07T02:33:59;7.53;;;2.42;;
75139;SDS011;63714;55.812;37.658;2023-05-07T02:36:25;5.00;;;2.33;;
75139;SDS011;63714;55.812;37.658;2023-05-07T02:38:52;6.82;;;2.53;;
75139;SDS011;63714;55.812;37.658;2023-05-07T02:41:18;5.72;;;2.60;;
75139;SDS011;63714;55.812;37.658;2023-05-07T02:43:43;4.03;;;2.35;;
75139;SDS011;63714;55.812;37.658;2023-05-07T02:46:09;5.18;;;2.20;;
75139;SDS011;63714;55.812;37.658;2023-05-07T02:48:35;3.85;;;2.20;;
75139;SDS011;63714;55.812;37.658;2023-05-07T02:51:01;4.63;;;2.45;;
75139;SDS011;63714;55.812;37.658;2023-05-07T02:53:27;6.45;;;2.70;;
75139;SDS011;63714;55.812;37.658;2023-05-07T02:55:57;4.78;;;2.97;;
75139;SDS011;63714;55.812;37.658;2023-05-07T02:58:24;3.70;;;2.28;;
75139;SDS011;63714;55.812;37.658;2023-05-07T03:00:50;4.68;;;2.50;;
75139;SDS011;63714;55.812;37.658;2023-05-07T03:03:16;3.95;;;2.33;;
75139;SDS011;63714;55.812;37.658;2023-05-07T03:05:42;4.35;;;2.20;;
75139;SDS011;63714;55.812;37.658;2023-05-07T03:08:08;5.45;;;2.50;;
75139;SDS011;63714;55.812;37.658;2023-05-07T03:10:34;5.20;;;2.38;;
75139;SDS011;63714;55.812;37.658;2023-05-07T03:13:00;4.72;;;2.65;;
75139;SDS011;63714;55.812;37.658;2023-05-07T03:15:26;3.72;;;2.30;;
75139;SDS011;63714;55.812;37.658;2023-05-07T03:17:52;5.57;;;2.50;;
75139;SDS011;63714;55.812;37.658;2023-05-07T03:20:18;4.50;;;2.60;;
75139;SDS011;63714;55.812;37.658;2023-05-07T03:22:44;3.45;;;2.08;;
75139;SDS011;63714;55.812;37.658;2023-05-07T03:25:09;5.15;;;1.90;;
75139;SDS011;63714;55.812;37.658;2023-05-07T03:27:36;3.50;;;2.08;;
75139;SDS011;63714;55.812;37.658;2023-05-07T03:30:04;5.40;;;2.88;;
75139;SDS011;63714;55.812;37.658;2023-05-07T03:32:31;6.22;;;2.97;;
75139;SDS011;63714;55.812;37.658;2023-05-07T03:34:57;6.45;;;2.38;;
75139;SDS011;63714;55.812;37.658;2023-05-07T03:37:23;7.90;;;2.30;;
75139;SDS011;63714;55.812;37.658;2023-05-07T03:39:48;6.10;;;2.28;;
75139;SDS011;63714;55.812;37.658;2023-05-07T03:42:14;5.82;;;2.28;;
75139;SDS011;63714;55.812;37.658;2023-05-07T03:44:40;3.25;;;2.00;;
75139;SDS011;63714;55.812;37.658;2023-05-07T03:47:05;3.67;;;2.33;;
75139;SDS011;63714;55.812;37.658;2023-05-07T03:49:31;4.70;;;2.00;;
75139;SDS011;63714;55.812;37.658;2023-05-07T03:51:57;4.75;;;2.33;;
75139;SDS011;63714;55.812;37.658;2023-05-07T03:54:22;4.75;;;2.00;;
75139;SDS011;63714;55.812;37.658;2023-05-07T03:56:48;3.63;;;1.85;;
75139;SDS011;63714;55.812;37.658;2023-05-07T03:59:13;4.05;;;1.95;;
75139;SDS011;63714;55.812;37.658;2023-05-07T04:01:39;2.83;;;1.40;;
75139;SDS011;63714;55.812;37.658;2023-05-07T04:04:05;3.03;;;1.70;;
75139;SDS011;63714;55.812;37.658;2023-05-07T04:06:31;2.58;;;1.70;;
75139;SDS011;63714;55.812;37.658;2023-05-07T04:08:56;3.55;;;1.77;;
75139;SDS011;63714;55.812;37.658;2023-05-07T04:11:22;3.35;;;1.70;;
75139;SDS011;63714;55.812;37.658;2023-05-07T04:13:48;3.03;;;1.80;;
75139;SDS011;63714;55.812;37.658;2023-05-07T04:16:14;2.50;;;1.60;;
75139;SDS011;63714;55.812;37.658;2023-05-07T04:18:40;3.38;;;1.90;;
75139;SDS011;63714;55.812;37.658;2023-05-07T04:21:13;3.78;;;1.92;;
75139;SDS011;63714;55.812;37.658;2023-05-07T04:23:40;2.50;;;1.60;;
75139;SDS011;63714;55.812;37.658;2023-05-07T04:26:05;3.25;;;1.63;;
75139;SDS011;63714;55.812;37.658;2023-05-07T04:28:32;2.50;;;1.80;;
75139;SDS011;63714;55.812;37.658;2023-05-07T04:30:57;3.25;;;1.90;;
75139;SDS011;63714;55.812;37.658;2023-05-07T04:33:23;3.22;;;1.58;;
75139;SDS011;63714;55.812;37.658;2023-05-07T04:35:49;3.22;;;1.80;;
75139;SDS011;63714;55.812;37.658;2023-05-07T04:38:15;3.50;;;1.70;;
75139;SDS011;63714;55.812;37.658;2023-05-07T04:40:41;3.30;;;1.85;;
75139;SDS011;63714;55.812;37.658;2023-05-07T04:43:07;3.85;;;1.90;;
75139;SDS011;63714;55.812;37.658;2023-05-07T04:45:34;3.15;;;2.25;;
75139;SDS011;63714;55.812;37.658;2023-05-07T04:48:01;4.60;;;1.65;;
75139;SDS011;63714;55.812;37.658;2023-05-07T04:50:27;2.72;;;1.65;;
75139;SDS011;63714;55.812;37.658;2023-05-07T04:52:53;5.03;;;1.83;;
75139;SDS011;63714;55.812;37.658;2023-05-07T04:55:18;3.70;;;1.85;;
75139;SDS011;63714;55.812;37.658;2023-05-07T04:57:44;2.83;;;1.70;;
75139;SDS011;63714;55.812;37.658;2023-05-07T05:00:10;3.30;;;1.95;;
75139;SDS011;63714;55.812;37.658;2023-05-07T05:02:39;5.63;;;1.67;;
75139;SDS011;63714;55.812;37.658;2023-05-07T05:05:06;3.72;;;2.22;;
75139;SDS011;63714;55.812;37.658;2023-05-07T05:07:32;2.08;;;1.75;;
75139;SDS011;63714;55.812;37.658;2023-05-07T05:09:58;3.13;;;1.33;;
75139;SDS011;63714;55.812;37.658;2023-05-07T05:12:24;4.28;;;1.80;;
75139;SDS011;63714;55.812;37.658;2023-05-07T05:14:50;3.50;;;1.73;;
75139;SDS011;63714;55.812;37.658;2023-05-07T05:17:16;11.48;;;2.38;;
75139;SDS011;63714;55.812;37.658;2023-05-07T05:19:42;2.83;;;1.90;;
75139;SDS011;63714;55.812;37.658;2023-05-07T05:22:07;3.05;;;1.83;;
75139;SDS011;63714;55.812;37.658;2023-05-07T05:24:33;2.55;;;1.55;;
75139;SDS011;63714;55.812;37.658;2023-05-07T05:26:59;4.00;;;1.75;;
75139;SDS011;63714;55.812;37.658;2023-05-07T05:29:28;4.10;;;1.90;;
75139;SDS011;63714;55.812;37.658;2023-05-07T05:31:53;2.20;;;1.77;;
75139;SDS011;63714;55.812;37.658;2023-05-07T05:34:19;2.83;;;1.90;;
75139;SDS011;63714;55.812;37.658;2023-05-07T05:36:45;3.80;;;1.60;;
75139;SDS011;63714;55.812;37.658;2023-05-07T05:39:11;2.28;;;1.40;;
75139;SDS011;63714;55.812;37.658;2023-05-07T05:41:38;4.82;;;1.50;;
75139;SDS011;63714;55.812;37.658;2023-05-07T05:44:03;5.20;;;1.48;;
75139;SDS011;63714;55.812;37.658;2023-05-07T05:46:29;2.38;;;1.50;;
75139;SDS011;63714;55.812;37.658;2023-05-07T05:48:55;4.55;;;1.70;;
75139;SDS011;63714;55.812;37.658;2023-05-07T05:51:21;2.25;;;1.60;;
75139;SDS011;63714;55.812;37.658;2023-05-07T05:53:46;4.38;;;1.20;;
75139;SDS011;63714;55.812;37.658;2023-05-07T05:56:12;1.52;;;1.08;;
75139;SDS011;63714;55.812;37.658;2023-05-07T05:58:38;1.65;;;0.77;;
75139;SDS011;63714;55.812;37.658;2023-05-07T06:01:04;3.08;;;0.90;;
75139;SDS011;63714;55.812;37.658;2023-05-07T06:03:30;1.63;;;1.00;;
75139;SDS011;63714;55.812;37.658;2023-05-07T06:05:57;3.08;;;1.00;;
75139;SDS011;63714;55.812;37.658;2023-05-07T06:08:23;1.13;;;1.00;;
75139;SDS011;63714;55.812;37.658;2023-05-07T06:10:49;2.08;;;1.00;;
75139;SDS011;63714;55.812;37.658;2023-05-07T06:13:15;3.70;;;1.77;;
75139;SDS011;63714;55.812;37.658;2023-05-07T06:15:41;1.98;;;0.93;;
75139;SDS011;63714;55.812;37.658;2023-05-07T06:18:06;2.15;;;0.93;;
75139;SDS011;63714;55.812;37.658;2023-05-07T06:20:32;4.05;;;1.10;;
75139;SDS011;63714;55.812;37.658;2023-05-07T06:22:58;3.17;;;1.00;;
75139;SDS011;63714;55.812;37.658;2023-05-07T06:25:23;2.42;;;1.05;;
75139;SDS011;63714;55.812;37.658;2023-05-07T06:27:49;0.93;;;0.80;;
75139;SDS011;63714;55.812;37.658;2023-05-07T06:30:15;3.13;;;0.90;;
75139;SDS011;63714;55.812;37.658;2023-05-07T06:32:40;1.63;;;1.02;;
75139;SDS011;63714;55.812;37.658;2023-05-07T06:35:06;1.98;;;0.90;;
75139;SDS011;63714;55.812;37.658;2023-05-07T06:37:32;1.55;;;0.73;;
75139;SDS011;63714;55.812;37.658;2023-05-07T06:39:58;1.63;;;0.95;;
75139;SDS011;63714;55.812;37.658;2023-05-07T06:42:23;0.98;;;0.80;;
75139;SDS011;63714;55.812;37.658;2023-05-07T06:44:49;2.03;;;1.00;;
75139;SDS011;63714;55.812;37.658;2023-05-07T06:47:15;2.53;;;1.27;;
75139;SDS011;63714;55.812;37.658;2023-05-07T06:49:40;2.15;;;0.95;;
75139;SDS011;63714;55.812;37.658;2023-05-07T06:52:06;2.80;;;0.80;;
75139;SDS011;63714;55.812;37.658;2023-05-07T06:54:32;2.75;;;0.90;;
75139;SDS011;63714;55.812;37.658;2023-05-07T06:56:57;2.65;;;0.90;;
75139;SDS011;63714;55.812;37.658;2023-05-07T06:59:23;3.58;;;0.90;;
75139;SDS011;63714;55.812;37.658;2023-05-07T07:01:49;1.67;;;0.70;;
75139;SDS011;63714;55.812;37.658;2023-05-07T07:04:15;2.15;;;1.00;;
75139;SDS011;63714;55.812;37.658;2023-05-07T07:06:40;2.25;;;1.33;;
75139;SDS011;63714;55.812;37.658;2023-05-07T07:09:06;1.20;;;0.98;;
75139;SDS011;63714;55.812;37.658;2023-05-07T07:11:32;1.10;;;0.98;;
75139;SDS011;63714;55.812;37.658;2023-05-07T07:13:58;3.17;;;1.33;;
75139;SDS011;63714;55.812;37.658;2023-05-07T07:16:24;1.35;;;0.93;;
75139;SDS011;63714;55.812;37.658;2023-05-07T07:18:49;1.35;;;0.95;;
75139;SDS011;63714;55.812;37.658;2023-05-07T07:21:16;3.35;;;1.42;;
75139;SDS011;63714;55.812;37.658;2023-05-07T07:26:05;2.78;;;0.90;;
75139;SDS011;63714;55.812;37.658;2023-05-07T07:28:31;2.25;;;0.90;;
75139;SDS011;63714;55.812;37.658;2023-05-07T07:30:57;2.15;;;0.82;;
75139;SDS011;63714;55.812;37.658;2023-05-07T07:33:23;1.42;;;0.90;;
75139;SDS011;63714;55.812;37.658;2023-05-07T07:35:49;4.25;;;1.00;;
75139;SDS011;63714;55.812;37.658;2023-05-07T07:38:14;1.95;;;1.10;;
75139;SDS011;63714;55.812;37.658;2023-05-07T07:40:40;5.40;;;1.33;;
75139;SDS011;63714;55.812;37.658;2023-05-07T07:43:06;3.28;;;1.33;;
75139;SDS011;63714;55.812;37.658;2023-05-07T07:45:31;1.85;;;1.15;;
75139;SDS011;63714;55.812;37.658;2023-05-07T07:47:57;1.63;;;1.15;;
75139;SDS011;63714;55.812;37.658;2023-05-07T07:50:23;2.60;;;0.80;;
75139;SDS011;63714;55.812;37.658;2023-05-07T07:52:49;1.58;;;1.00;;
75139;SDS011;63714;55.812;37.658;2023-05-07T07:55:14;3.45;;;1.08;;
75139;SDS011;63714;55.812;37.658;2023-05-07T07:57:46;1.42;;;0.80;;
75139;SDS011;63714;55.812;37.658;2023-05-07T08:00:12;3.90;;;1.20;;
75139;SDS011;63714;55.812;37.658;2023-05-07T08:02:38;3.10;;;0.98;;
75139;SDS011;63714;55.812;37.658;2023-05-07T08:05:04;2.47;;;1.02;;
75139;SDS011;63714;55.812;37.658;2023-05-07T08:07:29;1.65;;;1.13;;
75139;SDS011;63714;55.812;37.658;2023-05-07T08:09:55;1.58;;;0.95;;
75139;SDS011;63714;55.812;37.658;2023-05-07T08:12:21;1.48;;;1.05;;
75139;SDS011;63714;55.812;37.658;2023-05-07T08:14:47;1.88;;;0.95;;
75139;SDS011;63714;55.812;37.658;2023-05-07T08:17:12;1.42;;;0.98;;
75139;SDS011;63714;55.812;37.658;2023-05-07T08:19:41;2.30;;;1.02;;
75139;SDS011;63714;55.812;37.658;2023-05-07T08:22:08;1.70;;;1.13;;
75139;SDS011;63714;55.812;37.658;2023-05-07T08:24:34;1.60;;;1.00;;
75139;SDS011;63714;55.812;37.658;2023-05-07T08:27:00;1.92;;;0.93;;
75139;SDS011;63714;55.812;37.658;2023-05-07T08:29:25;4.22;;;1.20;;
75139;SDS011;63714;55.812;37.658;2023-05-07T08:31:51;2.42;;;0.80;;
75139;SDS011;63714;55.812;37.658;2023-05-07T08:34:17;1.58;;;0.90;;
75139;SDS011;63714;55.812;37.658;2023-05-07T08:36:43;6.18;;;2.80;;
75139;SDS011;63714;55.812;37.658;2023-05-07T08:39:09;5.10;;;1.55;;
75139;SDS011;63714;55.812;37.658;2023-05-07T08:44:03;2.38;;;1.75;;
75139;SDS011;63714;55.812;37.658;2023-05-07T08:46:36;2.65;;;1.60;;
75139;SDS011;63714;55.812;37.658;2023-05-07T08:49:02;2.20;;;1.20;;
75139;SDS011;63714;55.812;37.658;2023-05-07T08:51:28;2.05;;;1.02;;
75139;SDS011;63714;55.812;37.658;2023-05-07T08:53:54;2.58;;;1.17;;
75139;SDS011;63714;55.812;37.658;2023-05-07T08:56:20;2.97;;;1.10;;
75139;SDS011;63714;55.812;37.658;2023-05-07T08:58:46;1.27;;;0.70;;
75139;SDS011;63714;55.812;37.658;2023-05-07T09:01:13;1.40;;;0.90;;
75139;SDS011;63714;55.812;37.658;2023-05-07T09:03:40;2.00;;;1.05;;
75139;SDS011;63714;55.812;37.658;2023-05-07T09:06:06;2.33;;;1.05;;
75139;SDS011;63714;55.812;37.658;2023-05-07T09:08:32;3.20;;;1.33;;
75139;SDS011;63714;55.812;37.658;2023-05-07T09:10:59;0.93;;;0.70;;
75139;SDS011;63714;55.812;37.658;2023-05-07T09:13:25;1.10;;;0.73;;
75139;SDS011;63714;55.812;37.658;2023-05-07T09:15:53;2.15;;;0.90;;
75139;SDS011;63714;55.812;37.658;2023-05-07T09:18:18;3.25;;;1.13;;
75139;SDS011;63714;55.812;37.658;2023-05-07T09:20:44;2.30;;;1.08;;
75139;SDS011;63714;55.812;37.658;2023-05-07T09:23:10;2.05;;;0.90;;
75139;SDS011;63714;55.812;37.658;2023-05-07T09:25:36;2.42;;;1.02;;
75139;SDS011;63714;55.812;37.658;2023-05-07T09:28:02;3.22;;;1.00;;
75139;SDS011;63714;55.812;37.658;2023-05-07T09:30:30;2.58;;;0.90;;
75139;SDS011;63714;55.812;37.658;2023-05-07T09:33:00;1.55;;;0.98;;
75139;SDS011;63714;55.812;37.658;2023-05-07T09:35:27;4.05;;;1.10;;
75139;SDS011;63714;55.812;37.658;2023-05-07T09:37:53;1.67;;;0.93;;
75139;SDS011;63714;55.812;37.658;2023-05-07T09:40:21;1.10;;;1.00;;
75139;SDS011;63714;55.812;37.658;2023-05-07T09:42:48;1.10;;;0.90;;
75139;SDS011;63714;55.812;37.658;2023-05-07T09:45:15;1.65;;;1.20;;
75139;SDS011;63714;55.812;37.658;2023-05-07T09:47:46;4.30;;;1.40;;
75139;SDS011;63714;55.812;37.658;2023-05-07T09:50:15;1.65;;;1.00;;
75139;SDS011;63714;55.812;37.658;2023-05-07T09:52:43;2.13;;;1.13;;
75139;SDS011;63714;55.812;37.658;2023-05-07T09:55:10;4.05;;;1.23;;
75139;SDS011;63714;55.812;37.658;2023-05-07T09:57:38;1.42;;;0.90;;
75139;SDS011;63714;55.812;37.658;2023-05-07T10:02:32;6.05;;;1.23;;
75139;SDS011;63714;55.812;37.658;2023-05-07T10:05:02;2.75;;;0.80;;
75139;SDS011;63714;55.812;37.658;2023-05-07T10:07:29;2.53;;;1.10;;
75139;SDS011;63714;55.812;37.658;2023-05-07T10:09:55;2.58;;;0.90;;
75139;SDS011;63714;55.812;37.658;2023-05-07T10:12:23;2.30;;;1.20;;
75139;SDS011;63714;55.812;37.658;2023-05-07T10:14:49;6.75;;;1.30;;
75139;SDS011;63714;55.812;37.658;2023-05-07T10:17:16;5.38;;;1.30;;
75139;SDS011;63714;55.812;37.658;2023-05-07T10:19:44;2.67;;;1.00;;
75139;SDS011;63714;55.812;37.658;2023-05-07T10:22:10;3.25;;;0.93;;
75139;SDS011;63714;55.812;37.658;2023-05-07T10:24:38;1.30;;;0.80;;
75139;SDS011;63714;55.812;37.658;2023-05-07T10:27:05;2.10;;;1.13;;
75139;SDS011;63714;55.812;37.658;2023-05-07T10:35:04;2.17;;;0.90;;
75139;SDS011;63714;55.812;37.658;2023-05-07T10:37:35;1.58;;;0.90;;
75139;SDS011;63714;55.812;37.658;2023-05-07T10:40:02;1.90;;;1.05;;
75139;SDS011;63714;55.812;37.658;2023-05-07T10:42:30;3.58;;;1.00;;
75139;SDS011;63714;55.812;37.658;2023-05-07T10:44:56;3.15;;;0.90;;
75139;SDS011;63714;55.812;37.658;2023-05-07T10:47:22;2.40;;;1.00;;
75139;SDS011;63714;55.812;37.658;2023-05-07T10:52:17;2.53;;;0.95;;
75139;SDS011;63714;55.812;37.658;2023-05-07T10:54:44;2.15;;;0.85;;
75139;SDS011;63714;55.812;37.658;2023-05-07T11:00:47;1.98;;;1.00;;
75139;SDS011;63714;55.812;37.658;2023-05-07T11:05:29;3.55;;;1.17;;
75139;SDS011;63714;55.812;37.658;2023-05-07T11:13:17;1.55;;;1.00;;
75139;SDS011;63714;55.812;37.658;2023-05-07T11:15:45;2.42;;;1.20;;
75139;SDS011;63714;55.812;37.658;2023-05-07T11:18:15;2.92;;;1.30;;
75139;SDS011;63714;55.812;37.658;2023-05-07T11:26:00;4.95;;;1.00;;
75139;SDS011;63714;55.812;37.658;2023-05-07T11:28:42;2.10;;;1.20;;
75139;SDS011;63714;55.812;37.658;2023-05-07T11:31:09;4.50;;;1.33;;
75139;SDS011;63714;55.812;37.658;2023-05-07T11:33:35;4.05;;;1.10;;
75139;SDS011;63714;55.812;37.658;2023-05-07T11:36:03;2.63;;;0.95;;
75139;SDS011;63714;55.812;37.658;2023-05-07T11:38:30;3.80;;;0.90;;
75139;SDS011;63714;55.812;37.658;2023-05-07T11:40:56;27.88;;;3.13;;
75139;SDS011;63714;55.812;37.658;2023-05-07T11:43:25;3.53;;;1.02;;
75139;SDS011;63714;55.812;37.658;2023-05-07T11:45:52;2.40;;;1.02;;
75139;SDS011;63714;55.812;37.658;2023-05-07T11:48:18;1.33;;;0.80;;
75139;SDS011;63714;55.812;37.658;2023-05-07T11:50:52;0.90;;;0.60;;
75139;SDS011;63714;55.812;37.658;2023-05-07T11:53:20;3.47;;;1.02;;
75139;SDS011;63714;55.812;37.658;2023-05-07T11:55:46;3.22;;;0.85;;
75139;SDS011;63714;55.812;37.658;2023-05-07T11:58:12;2.20;;;0.90;;
75139;SDS011;63714;55.812;37.658;2023-05-07T12:00:49;2.72;;;1.00;;
75139;SDS011;63714;55.812;37.658;2023-05-07T12:03:15;1.88;;;1.00;;
75139;SDS011;63714;55.812;37.658;2023-05-07T12:05:40;3.05;;;1.00;;
75139;SDS011;63714;55.812;37.658;2023-05-07T12:08:07;1.48;;;0.90;;
75139;SDS011;63714;55.812;37.658;2023-05-07T12:10:33;1.52;;;1.08;;
75139;SDS011;63714;55.812;37.658;2023-05-07T12:12:59;2.80;;;1.23;;
75139;SDS011;63714;55.812;37.658;2023-05-07T12:15:24;2.42;;;1.10;;
75139;SDS011;63714;55.812;37.658;2023-05-07T12:17:50;0.93;;;0.70;;
75139;SDS011;63714;55.812;37.658;2023-05-07T12:20:17;3.72;;;1.00;;
75139;SDS011;63714;55.812;37.658;2023-05-07T12:22:43;1.45;;;0.77;;
75139;SDS011;63714;55.812;37.658;2023-05-07T12:25:10;3.03;;;1.00;;
75139;SDS011;63714;55.812;37.658;2023-05-07T12:27:36;1.33;;;0.80;;
75139;SDS011;63714;55.812;37.658;2023-05-07T12:30:05;3.17;;;1.20;;
75139;SDS011;63714;55.812;37.658;2023-05-07T12:32:31;2.90;;;0.90;;
75139;SDS011;63714;55.812;37.658;2023-05-07T12:35:01;1.80;;;1.00;;
75139;SDS011;63714;55.812;37.658;2023-05-07T12:37:27;2.50;;;0.93;;
75139;SDS011;63714;55.812;37.658;2023-05-07T12:40:14;2.72;;;0.82;;
75139;SDS011;63714;55.812;37.658;2023-05-07T12:42:40;2.50;;;0.90;;
75139;SDS011;63714;55.812;37.658;2023-05-07T12:45:12;1.23;;;0.60;;
75139;SDS011;63714;55.812;37.658;2023-05-07T12:47:44;2.95;;;1.17;;
75139;SDS011;63714;55.812;37.658;2023-05-07T12:50:10;3.30;;;1.10;;
75139;SDS011;63714;55.812;37.658;2023-05-07T12:52:36;4.22;;;1.00;;
75139;SDS011;63714;55.812;37.658;2023-05-07T12:55:06;1.98;;;1.00;;
75139;SDS011;63714;55.812;37.658;2023-05-07T12:57:43;6.18;;;1.02;;
75139;SDS011;63714;55.812;37.658;2023-05-07T13:00:11;2.35;;;1.00;;
75139;SDS011;63714;55.812;37.658;2023-05-07T13:02:37;4.38;;;1.30;;
75139;SDS011;63714;55.812;37.658;2023-05-07T13:05:04;6.22;;;3.13;;
75139;SDS011;63714;55.812;37.658;2023-05-07T13:07:30;2.10;;;0.93;;
75139;SDS011;63714;55.812;37.658;2023-05-07T13:09:56;2.35;;;0.93;;
75139;SDS011;63714;55.812;37.658;2023-05-07T13:12:22;1.55;;;0.90;;
75139;SDS011;63714;55.812;37.658;2023-05-07T13:14:47;3.42;;;1.00;;
75139;SDS011;63714;55.812;37.658;2023-05-07T13:17:13;2.78;;;1.20;;
75139;SDS011;63714;55.812;37.658;2023-05-07T13:19:39;5.90;;;1.20;;
75139;SDS011;63714;55.812;37.658;2023-05-07T13:22:05;4.40;;;1.35;;
75139;SDS011;63714;55.812;37.658;2023-05-07T13:24:30;3.10;;;1.00;;
75139;SDS011;63714;55.812;37.658;2023-05-07T13:26:56;1.75;;;0.93;;
75139;SDS011;63714;55.812;37.658;2023-05-07T13:29:21;1.52;;;0.70;;
75139;SDS011;63714;55.812;37.658;2023-05-07T13:31:54;1.98;;;0.80;;
75139;SDS011;63714;55.812;37.658;2023-05-07T13:34:20;2.50;;;0.90;;
75139;SDS011;63714;55.812;37.658;2023-05-07T13:36:45;2.65;;;0.95;;
75139;SDS011;63714;55.812;37.658;2023-05-07T13:39:11;2.05;;;1.10;;
75139;SDS011;63714;55.812;37.658;2023-05-07T13:41:37;5.20;;;1.40;;
75139;SDS011;63714;55.812;37.658;2023-05-07T13:44:03;1.40;;;0.73;;
75139;SDS011;63714;55.812;37.658;2023-05-07T13:46:29;2.17;;;0.82;;
75139;SDS011;63714;55.812;37.658;2023-05-07T13:48:55;3.83;;;0.93;;
75139;SDS011;63714;55.812;37.658;2023-05-07T13:51:21;3.22;;;0.90;;
75139;SDS011;63714;55.812;37.658;2023-05-07T13:53:47;2.88;;;1.00;;
75139;SDS011;63714;55.812;37.658;2023-05-07T13:56:13;2.22;;;1.20;;
75139;SDS011;63714;55.812;37.658;2023-05-07T13:58:39;2.15;;;0.80;;
75139;SDS011;63714;55.812;37.658;2023-05-07T14:01:05;3.17;;;1.00;;
75139;SDS011;63714;55.812;37.658;2023-05-07T14:03:31;2.95;;;0.80;;
75139;SDS011;63714;55.812;37.658;2023-05-07T14:05:59;2.78;;;1.00;;
75139;SDS011;63714;55.812;37.658;2023-05-07T14:08:26;4.15;;;1.23;;
75139;SDS011;63714;55.812;37.658;2023-05-07T14:10:53;3.08;;;1.00;;
75139;SDS011;63714;55.812;37.658;2023-05-07T14:13:18;5.57;;;1.17;;
75139;SDS011;63714;55.812;37.658;2023-05-07T14:15:44;3.50;;;1.20;;
75139;SDS011;63714;55.812;37.658;2023-05-07T14:18:15;4.03;;;1.23;;
75139;SDS011;63714;55.812;37.658;2023-05-07T14:20:41;2.13;;;1.10;;
75139;SDS011;63714;55.812;37.658;2023-05-07T14:23:11;3.17;;;1.00;;
75139;SDS011;63714;55.812;37.658;2023-05-07T14:25:37;2.75;;;0.90;;
75139;SDS011;63714;55.812;37.658;2023-05-07T14:28:03;3.42;;;1.08;;
75139;SDS011;63714;55.812;37.658;2023-05-07T14:30:29;2.95;;;1.05;;
75139;SDS011;63714;55.812;37.658;2023-05-07T14:32:54;2.85;;;1.00;;
75139;SDS011;63714;55.812;37.658;2023-05-07T14:35:20;7.28;;;1.20;;
75139;SDS011;63714;55.812;37.658;2023-05-07T14:37:46;2.97;;;0.90;;
75139;SDS011;63714;55.812;37.658;2023-05-07T14:40:11;3.97;;;1.00;;
75139;SDS011;63714;55.812;37.658;2023-05-07T14:42:37;3.33;;;1.00;;
75139;SDS011;63714;55.812;37.658;2023-05-07T14:45:03;2.35;;;0.90;;
75139;SDS011;63714;55.812;37.658;2023-05-07T14:47:31;1.70;;;0.85;;
75139;SDS011;63714;55.812;37.658;2023-05-07T14:49:57;1.88;;;1.20;;
75139;SDS011;63714;55.812;37.658;2023-05-07T14:52:23;2.33;;;0.90;;
75139;SDS011;63714;55.812;37.658;2023-05-07T14:54:49;2.17;;;1.10;;
75139;SDS011;63714;55.812;37.658;2023-05-07T14:57:14;4.95;;;2.17;;
75139;SDS011;63714;55.812;37.658;2023-05-07T14:59:43;2.72;;;1.10;;
75139;SDS011;63714;55.812;37.658;2023-05-07T15:02:10;2.22;;;1.25;;